Time;durP1;ratioP1;P1;durP2;ratioP2;P2;SDS_P1;SDS_P2;PMS_P1;PMS_P2;Temp;Humidity;BMP_temperature;BMP_pressure;BME280_temperature;BME280_humidity;BME280_pressure;Samples;Min_cycle;Max_cycle;Signal;HPM_P1;HPM_P2
2022/03/15 00:01:13;;;;;;;39.30;20.50;;;0.80;99.90;;;;;;6239387;28;20272;-74
2022/03/15 00:04:19;;;;;;;36.20;20.30;;;0.80;99.90;;;;;;6238737;28;20582;-74
2022/03/15 00:07:24;;;;;;;39.47;20.70;;;0.70;99.90;;;;;;6238793;28;20299;-75
2022/03/15 00:10:30;;;;;;;44.00;21.13;;;0.70;99.90;;;;;;6239162;28;20267;-75
2022/03/15 00:13:39;;;;;;;43.73;20.87;;;0.70;99.90;;;;;;6238826;28;20300;-75
2022/03/15 00:16:45;;;;;;;40.23;20.73;;;0.60;99.90;;;;;;6238734;28;20269;-75
2022/03/15 00:19:51;;;;;;;45.07;20.83;;;0.60;99.90;;;;;;6238054;28;20488;-75
2022/03/15 00:22:59;;;;;;;35.63;19.97;;;0.60;99.90;;;;;;6238694;28;20310;-75
2022/03/15 00:26:05;;;;;;;39.13;20.93;;;0.50;99.90;;;;;;6238958;28;20275;-75
2022/03/15 00:29:16;;;;;;;39.03;20.43;;;0.40;99.90;;;;;;6237952;28;20307;-75
2022/03/15 00:32:22;;;;;;;38.13;20.13;;;0.40;99.90;;;;;;6237783;28;20271;-75
2022/03/15 00:35:28;;;;;;;40.60;20.00;;;0.30;99.90;;;;;;6238650;28;20275;-75
2022/03/15 00:38:34;;;;;;;37.90;20.10;;;0.30;99.90;;;;;;6237083;28;20303;-75
2022/03/15 00:41:39;;;;;;;39.50;21.10;;;0.30;99.90;;;;;;6238730;28;20270;-75
2022/03/15 00:44:46;;;;;;;39.20;19.53;;;0.30;99.90;;;;;;6220583;28;20305;-75
2022/03/15 00:47:52;;;;;;;37.80;20.87;;;0.30;99.90;;;;;;6237614;28;20485;-75
2022/03/15 00:50:58;;;;;;;38.10;19.87;;;0.30;99.90;;;;;;6236532;28;20270;-75
2022/03/15 00:54:03;;;;;;;35.83;19.93;;;0.30;99.90;;;;;;6237585;28;20299;-75
2022/03/15 00:57:11;;;;;;;37.10;19.40;;;0.20;99.90;;;;;;6236133;28;20279;-75
2022/03/15 01:00:20;;;;;;;35.03;19.07;;;0.10;99.90;;;;;;6237847;28;20278;-75
2022/03/15 01:03:26;;;;;;;36.57;19.70;;;0.10;99.90;;;;;;6236155;28;20601;-75
2022/03/15 01:06:32;;;;;;;38.00;20.40;;;0.10;99.90;;;;;;6228094;28;20303;-75
2022/03/15 01:09:37;;;;;;;37.90;19.07;;;0.10;99.90;;;;;;6209639;28;20302;-75
2022/03/15 01:12:43;;;;;;;37.50;20.00;;;0.00;99.90;;;;;;6203751;28;20299;-75
2022/03/15 01:15:50;;;;;;;38.73;19.67;;;0.00;99.90;;;;;;6189506;28;20546;-75
2022/03/15 01:18:55;;;;;;;42.67;20.10;;;0.00;99.90;;;;;;6188711;28;20304;-75
2022/03/15 01:22:04;;;;;;;32.93;18.90;;;-0.10;99.90;;;;;;6188020;28;20276;-75
2022/03/15 01:25:10;;;;;;;40.97;19.20;;;-0.10;99.90;;;;;;6189342;28;20276;-74
2022/03/15 01:28:18;;;;;;;39.37;20.13;;;-0.10;99.90;;;;;;6203156;28;20303;-75
2022/03/15 01:31:25;;;;;;;40.60;19.03;;;-0.10;99.90;;;;;;6189042;28;20275;-75
2022/03/15 01:34:30;;;;;;;41.13;20.40;;;-0.10;99.90;;;;;;6203249;28;20298;-75
2022/03/15 01:37:36;;;;;;;40.03;20.00;;;-0.20;99.90;;;;;;6188246;28;20296;-75
2022/03/15 01:40:47;;;;;;;34.67;19.63;;;-0.20;99.90;;;;;;6187324;28;20529;-76
2022/03/15 01:43:52;;;;;;;35.17;19.43;;;-0.10;99.90;;;;;;6188358;28;20299;-75
2022/03/15 01:46:59;;;;;;;37.37;19.60;;;-0.20;99.90;;;;;;6188425;28;20556;-75
2022/03/15 01:50:09;;;;;;;37.53;19.17;;;-0.20;99.90;;;;;;6202636;28;20304;-76
2022/03/15 01:53:18;;;;;;;35.57;19.20;;;-0.20;99.90;;;;;;6202898;28;20303;-76
2022/03/15 01:56:25;;;;;;;37.53;18.63;;;-0.30;99.90;;;;;;6202827;28;20278;-76
2022/03/15 01:59:31;;;;;;;35.90;18.17;;;-0.30;99.90;;;;;;6201957;28;20315;-75
2022/03/15 02:02:38;;;;;;;39.97;20.23;;;-0.30;99.90;;;;;;6185817;28;20291;-75
2022/03/15 02:05:44;;;;;;;39.17;19.87;;;-0.30;99.90;;;;;;6194792;28;20320;-76
2022/03/15 02:08:50;;;;;;;37.17;19.70;;;-0.30;99.90;;;;;;6236405;28;20304;-75
2022/03/15 02:11:55;;;;;;;39.03;18.90;;;-0.40;99.90;;;;;;6236336;28;20281;-75
2022/03/15 02:15:03;;;;;;;43.13;20.63;;;-0.50;99.90;;;;;;6236271;28;20610;-75
2022/03/15 02:18:18;;;;;;;43.23;20.60;;;-0.40;99.90;;;;;;6235919;28;20294;-75
2022/03/15 02:21:25;;;;;;;41.63;20.43;;;-0.30;99.90;;;;;;6236703;28;20276;-75
2022/03/15 02:24:31;;;;;;;41.47;21.17;;;-0.40;99.90;;;;;;6235979;28;20300;-75
2022/03/15 02:27:36;;;;;;;40.00;20.10;;;-0.40;99.90;;;;;;6236192;28;20557;-75
2022/03/15 02:30:41;;;;;;;41.63;20.30;;;-0.30;99.90;;;;;;6236459;28;20295;-75
2022/03/15 02:33:47;;;;;;;36.27;19.70;;;-0.30;99.90;;;;;;6235663;28;20302;-75
2022/03/15 02:36:56;;;;;;;40.10;19.87;;;-0.30;99.90;;;;;;6236649;28;20269;-75
2022/03/15 02:40:03;;;;;;;42.30;21.47;;;-0.30;99.90;;;;;;6235996;28;20490;-75
2022/03/15 02:43:09;;;;;;;39.60;20.40;;;-0.30;99.90;;;;;;6236063;28;20298;-75
2022/03/15 02:46:16;;;;;;;42.60;20.20;;;-0.30;99.90;;;;;;6236247;28;20281;-75
2022/03/15 02:49:21;;;;;;;41.53;21.07;;;-0.40;99.90;;;;;;6235737;28;20482;-75
2022/03/15 02:52:28;;;;;;;42.70;20.67;;;-0.40;99.90;;;;;;6235790;28;20295;-75
2022/03/15 02:55:34;;;;;;;41.67;20.63;;;-0.40;99.90;;;;;;6236413;28;20572;-75
2022/03/15 02:58:40;;;;;;;39.50;19.97;;;-0.50;99.90;;;;;;6236099;28;20398;-75
2022/03/15 03:01:47;;;;;;;36.53;19.63;;;-0.50;99.90;;;;;;6235874;28;20465;-75
2022/03/15 03:04:57;;;;;;;40.93;20.00;;;-0.50;99.90;;;;;;6235693;28;20294;-75
2022/03/15 03:08:04;;;;;;;42.23;20.63;;;-0.50;99.90;;;;;;6235750;28;20306;-76
2022/03/15 03:11:11;;;;;;;35.90;18.90;;;-0.50;99.90;;;;;;6236192;28;20295;-75
2022/03/15 03:14:18;;;;;;;35.17;19.10;;;-0.60;99.90;;;;;;6239341;28;20297;-75
2022/03/15 03:17:24;;;;;;;41.50;19.07;;;-0.60;99.90;;;;;;6238605;28;20328;-74
2022/03/15 03:20:29;;;;;;;40.93;19.40;;;-0.60;99.90;;;;;;6240068;28;20561;-74
2022/03/15 03:23:37;;;;;;;37.30;19.20;;;-0.60;99.90;;;;;;6240114;28;20297;-74
2022/03/15 03:26:43;;;;;;;42.07;19.47;;;-0.60;99.90;;;;;;6239877;28;20276;-75
2022/03/15 03:29:48;;;;;;;39.17;19.47;;;-0.60;99.90;;;;;;6239733;28;20301;-75
2022/03/15 03:32:53;;;;;;;39.53;21.03;;;-0.70;99.90;;;;;;6240123;28;20295;-76
2022/03/15 03:35:59;;;;;;;40.57;18.93;;;-0.70;99.90;;;;;;6239627;28;20268;-74
2022/03/15 03:39:07;;;;;;;34.40;18.50;;;-0.70;99.90;;;;;;6239048;28;20297;-74
2022/03/15 03:42:12;;;;;;;38.23;19.63;;;-0.70;99.90;;;;;;6239111;28;20277;-74
2022/03/15 03:45:17;;;;;;;37.13;18.37;;;-0.70;99.90;;;;;;6239587;28;20582;-75
2022/03/15 03:48:24;;;;;;;37.07;18.50;;;-0.70;99.90;;;;;;6239085;28;20297;-74
2022/03/15 03:51:29;;;;;;;39.70;18.17;;;-0.80;99.90;;;;;;6239571;28;20485;-74
2022/03/15 03:54:36;;;;;;;37.57;18.93;;;-0.80;99.90;;;;;;6239351;28;20296;-75
2022/03/15 03:57:42;;;;;;;33.47;17.93;;;-0.80;99.90;;;;;;6239099;28;20296;-74
2022/03/15 04:00:48;;;;;;;32.63;17.43;;;-0.90;99.90;;;;;;6239300;28;20281;-74
2022/03/15 04:03:53;;;;;;;36.23;18.10;;;-0.90;99.90;;;;;;6237346;28;20301;-74
2022/03/15 04:07:02;;;;;;;33.40;17.47;;;-1.00;99.90;;;;;;6238687;28;20474;-75
2022/03/15 04:10:12;;;;;;;40.80;17.73;;;-0.90;99.90;;;;;;6238805;28;20271;-75
2022/03/15 04:13:19;;;;;;;34.80;18.03;;;-0.90;99.90;;;;;;6238493;28;20317;-75
2022/03/15 04:16:25;;;;;;;37.23;18.27;;;-1.00;99.90;;;;;;6238772;28;20273;-75
2022/03/15 04:19:31;;;;;;;31.90;17.57;;;-1.00;99.90;;;;;;6238577;28;20288;-75
2022/03/15 04:22:36;;;;;;;35.30;17.30;;;-1.10;99.90;;;;;;6238285;28;20296;-74
2022/03/15 04:25:43;;;;;;;32.27;17.23;;;-1.10;99.90;;;;;;6238272;28;20269;-75
2022/03/15 04:28:50;;;;;;;36.20;17.67;;;-1.10;99.90;;;;;;6238295;28;20328;-74
2022/03/15 04:31:55;;;;;;;30.73;17.03;;;-1.10;99.90;;;;;;6238693;28;20297;-75
2022/03/15 04:35:00;;;;;;;35.70;17.27;;;-1.20;99.90;;;;;;6237478;28;20271;-75
2022/03/15 04:38:05;;;;;;;28.67;16.13;;;-1.20;99.90;;;;;;6237619;28;20379;-74
2022/03/15 04:41:13;;;;;;;33.53;16.30;;;-1.20;99.90;;;;;;6238408;28;20297;-74
2022/03/15 04:44:19;;;;;;;31.00;16.77;;;-1.20;99.90;;;;;;6238025;28;20469;-74
2022/03/15 04:47:24;;;;;;;33.33;16.73;;;-1.30;99.90;;;;;;6237584;28;20598;-74
2022/03/15 04:50:31;;;;;;;31.50;16.77;;;-1.30;99.90;;;;;;6238019;28;20275;-75
2022/03/15 04:53:36;;;;;;;41.87;17.30;;;-1.30;99.90;;;;;;6237826;28;20373;-74
2022/03/15 04:56:43;;;;;;;34.30;17.13;;;-1.20;99.90;;;;;;6238407;28;20273;-74
2022/03/15 04:59:48;;;;;;;36.23;16.70;;;-1.20;99.90;;;;;;6237612;28;20299;-74
2022/03/15 05:02:54;;;;;;;31.10;16.20;;;-1.20;99.90;;;;;;6237556;28;20296;-74
2022/03/15 05:05:59;;;;;;;30.90;15.60;;;-1.20;99.90;;;;;;6237903;28;20305;-74
2022/03/15 05:09:04;;;;;;;37.57;17.00;;;-1.20;99.90;;;;;;6237653;28;20304;-75
2022/03/15 05:12:12;;;;;;;33.47;15.43;;;-1.20;99.90;;;;;;6237152;28;20475;-74
2022/03/15 05:15:18;;;;;;;30.13;16.63;;;-1.20;99.90;;;;;;6238023;28;20276;-75
2022/03/15 05:18:24;;;;;;;34.70;17.30;;;-1.20;99.90;;;;;;6237035;28;20473;-74
2022/03/15 05:21:29;;;;;;;35.40;17.00;;;-1.20;99.90;;;;;;6237345;28;20280;-75
2022/03/15 05:24:35;;;;;;;32.77;15.77;;;-1.20;99.90;;;;;;6237089;28;20297;-74
2022/03/15 05:27:43;;;;;;;37.30;16.67;;;-1.20;99.90;;;;;;6236922;28;20612;-75
2022/03/15 05:30:48;;;;;;;37.63;16.90;;;-1.20;99.90;;;;;;6220016;28;20275;-75
2022/03/15 05:33:53;;;;;;;37.37;16.97;;;-1.10;99.90;;;;;;6237101;28;20308;-75
2022/03/15 05:36:59;;;;;;;32.50;16.57;;;-1.10;99.90;;;;;;6235951;28;20276;-76
2022/03/15 05:40:06;;;;;;;34.33;16.73;;;-1.10;99.90;;;;;;6237064;28;20280;-75
2022/03/15 05:43:19;;;;;;;36.00;15.90;;;-1.10;99.90;;;;;;6236507;28;20407;-75
2022/03/15 05:46:25;;;;;;;34.77;16.10;;;-1.00;99.90;;;;;;6237021;28;20289;-75
2022/03/15 05:49:30;;;;;;;35.17;16.73;;;-1.00;99.90;;;;;;6236827;28;20312;-75
2022/03/15 05:52:37;;;;;;;37.70;17.47;;;-0.90;99.90;;;;;;6236524;28;20497;-75
2022/03/15 05:55:42;;;;;;;38.17;17.53;;;-0.90;99.90;;;;;;6237007;28;20272;-75
2022/03/15 05:58:51;;;;;;;32.97;16.83;;;-0.80;99.90;;;;;;6236287;28;20297;-75
2022/03/15 06:01:56;;;;;;;36.63;16.50;;;-0.80;99.90;;;;;;6235954;28;20279;-76
2022/03/15 06:05:03;;;;;;;37.63;17.50;;;-0.70;99.90;;;;;;6236694;28;20545;-76
2022/03/15 06:08:11;;;;;;;41.47;17.13;;;-0.70;99.90;;;;;;6215060;28;20620;-75
2022/03/15 06:11:17;;;;;;;38.73;17.13;;;-0.70;99.90;;;;;;6197011;28;20267;-76
2022/03/15 06:14:24;;;;;;;30.23;16.37;;;-0.60;99.90;;;;;;6187454;28;20306;-75
2022/03/15 06:17:31;;;;;;;34.83;16.27;;;-0.60;99.90;;;;;;6188113;28;20298;-74
2022/03/15 06:20:37;;;;;;;35.87;16.33;;;-0.50;99.90;;;;;;6188712;28;20278;-74
2022/03/15 06:23:43;;;;;;;43.20;17.03;;;-0.50;99.90;;;;;;6187727;28;20305;-74
2022/03/15 06:27:08;;;;;;;42.80;16.53;;;-0.40;99.90;;;;;;6188187;28;20276;-74
2022/03/15 06:30:16;;;;;;;31.37;16.30;;;-0.30;99.90;;;;;;6188741;28;20277;-74
2022/03/15 06:33:22;;;;;;;31.00;16.03;;;-0.20;99.90;;;;;;6187516;28;20303;-75
2022/03/15 06:36:29;;;;;;;29.87;16.27;;;-0.30;99.90;;;;;;6188289;28;20270;-75
2022/03/15 06:39:35;;;;;;;33.80;15.87;;;-0.30;99.90;;;;;;6187825;28;20327;-75
2022/03/15 06:42:41;;;;;;;30.17;16.00;;;-0.30;99.90;;;;;;6187679;28;20311;-74
2022/03/15 06:45:47;;;;;;;28.23;16.20;;;-0.20;99.90;;;;;;6188674;28;20272;-77
2022/03/15 06:48:52;;;;;;;32.83;16.77;;;-0.10;99.90;;;;;;6190883;28;20489;-74
2022/03/15 06:51:58;;;;;;;30.00;16.67;;;0.00;99.90;;;;;;6192274;28;20566;-75
2022/03/15 06:55:04;;;;;;;35.03;16.53;;;0.10;99.90;;;;;;6192950;28;20276;-75
2022/03/15 06:58:13;;;;;;;34.67;16.67;;;0.20;99.90;;;;;;6192573;28;20306;-75
2022/03/15 07:01:20;;;;;;;36.97;17.20;;;0.20;99.90;;;;;;6193262;28;20279;-75
2022/03/15 07:04:25;;;;;;;34.13;16.90;;;0.30;99.90;;;;;;6192106;28;20296;-75
2022/03/15 07:07:31;;;;;;;37.30;16.67;;;0.30;99.90;;;;;;6222823;28;20303;-75
2022/03/15 07:10:36;;;;;;;33.77;16.60;;;0.40;99.90;;;;;;6240501;28;20266;-75
2022/03/15 07:13:42;;;;;;;37.83;16.63;;;0.50;99.90;;;;;;6240218;28;20309;-74
2022/03/15 07:16:48;;;;;;;35.50;17.70;;;0.60;99.90;;;;;;6239875;28;20274;-74
2022/03/15 07:19:53;;;;;;;28.83;16.43;;;0.60;99.90;;;;;;6239737;28;20298;-75
2022/03/15 07:22:59;;;;;;;37.60;16.73;;;0.60;99.90;;;;;;6240040;28;20479;-75
2022/03/15 07:26:04;;;;;;;36.10;17.73;;;0.70;99.90;;;;;;6240215;28;20545;-74
2022/03/15 07:29:11;;;;;;;32.53;17.03;;;0.80;99.90;;;;;;6239698;28;20612;-75
2022/03/15 07:32:20;;;;;;;36.73;18.03;;;0.90;99.90;;;;;;6239308;28;20298;-74
2022/03/15 07:35:26;;;;;;;36.27;18.17;;;1.10;99.90;;;;;;6239632;28;20295;-74
2022/03/15 07:38:32;;;;;;;34.73;17.77;;;1.10;99.90;;;;;;6239365;28;20294;-74
2022/03/15 07:41:40;;;;;;;34.47;18.00;;;1.20;99.90;;;;;;6239908;28;20275;-74
2022/03/15 07:44:45;;;;;;;33.73;18.13;;;1.20;99.90;;;;;;6239234;28;20303;-75
2022/03/15 07:47:52;;;;;;;33.97;18.90;;;1.30;99.90;;;;;;6238420;28;20477;-75
2022/03/15 07:50:57;;;;;;;39.83;18.50;;;1.50;99.90;;;;;;6239301;28;20291;-75
2022/03/15 07:54:04;;;;;;;34.50;19.37;;;1.60;99.90;;;;;;6238938;28;20305;-75
2022/03/15 07:57:10;;;;;;;35.87;19.50;;;1.70;99.90;;;;;;6239471;28;20272;-76
2022/03/15 08:00:17;;;;;;;38.07;19.83;;;1.70;99.90;;;;;;6238223;28;20274;-75
2022/03/15 08:03:24;;;;;;;34.93;19.23;;;2.00;99.90;;;;;;6239016;28;20303;-75
2022/03/15 08:06:30;;;;;;;37.30;18.43;;;2.00;99.90;;;;;;6238900;28;20301;-75
2022/03/15 08:09:38;;;;;;;36.10;19.40;;;2.00;99.90;;;;;;6238662;28;20300;-75
2022/03/15 08:12:43;;;;;;;39.57;19.93;;;2.00;99.90;;;;;;6238923;28;20295;-75
2022/03/15 08:15:48;;;;;;;35.43;18.77;;;2.00;99.90;;;;;;6238905;28;20293;-75
2022/03/15 08:18:56;;;;;;;38.33;19.27;;;2.20;99.90;;;;;;6238734;28;20296;-75
2022/03/15 08:22:02;;;;;;;35.37;18.83;;;2.20;99.90;;;;;;6237831;28;20276;-74
2022/03/15 08:25:10;;;;;;;35.47;19.17;;;2.20;99.90;;;;;;6238598;28;20464;-74
2022/03/15 08:28:17;;;;;;;37.60;18.57;;;2.20;99.90;;;;;;6238351;28;20304;-74
2022/03/15 08:31:22;;;;;;;40.00;19.50;;;2.40;99.90;;;;;;6238759;28;20268;-76
2022/03/15 08:34:30;;;;;;;39.97;19.33;;;2.50;99.90;;;;;;6238075;28;20304;-76
2022/03/15 08:37:37;;;;;;;38.13;19.33;;;2.50;99.90;;;;;;6237978;28;20300;-75
2022/03/15 08:40:42;;;;;;;34.07;18.40;;;2.50;99.90;;;;;;6238616;28;20277;-75
2022/03/15 08:43:48;;;;;;;37.00;18.67;;;2.50;99.90;;;;;;6238130;28;20313;-76
2022/03/15 08:46:53;;;;;;;32.47;18.70;;;2.70;99.90;;;;;;6238607;28;20277;-76
2022/03/15 08:50:00;;;;;;;32.57;17.73;;;2.90;99.90;;;;;;6237383;28;20317;-75
2022/03/15 08:53:05;;;;;;;34.00;18.00;;;2.80;99.90;;;;;;6237453;28;20579;-76
2022/03/15 08:56:11;;;;;;;34.87;18.37;;;3.00;99.90;;;;;;6237896;28;20294;-75
2022/03/15 08:59:17;;;;;;;36.27;19.07;;;3.00;99.90;;;;;;6237769;28;20301;-76
2022/03/15 09:02:22;;;;;;;31.50;17.60;;;3.00;99.90;;;;;;6237945;28;20471;-75
2022/03/15 09:05:29;;;;;;;36.50;17.20;;;3.30;99.90;;;;;;6238558;28;20280;-76
2022/03/15 09:08:35;;;;;;;36.43;18.07;;;3.30;99.90;;;;;;6237386;28;20302;-76
2022/03/15 09:11:41;;;;;;;35.73;16.17;;;3.50;99.90;;;;;;6237356;28;20300;-76
2022/03/15 09:14:46;;;;;;;34.70;17.37;;;3.60;99.90;;;;;;6237446;28;20309;-76
2022/03/15 09:17:52;;;;;;;34.30;17.30;;;3.50;99.90;;;;;;6237558;28;20298;-75
2022/03/15 09:21:02;;;;;;;24.30;15.37;;;3.60;99.90;;;;;;6237764;28;20574;-76
2022/03/15 09:24:08;;;;;;;32.60;17.03;;;3.80;99.90;;;;;;6237127;28;20298;-75
2022/03/15 09:27:14;;;;;;;26.73;15.47;;;3.90;99.90;;;;;;6237494;28;20277;-76
2022/03/15 09:30:20;;;;;;;38.77;17.53;;;3.90;99.90;;;;;;6237179;28;20291;-75
2022/03/15 09:33:25;;;;;;;32.20;16.03;;;3.90;99.90;;;;;;6236957;28;20303;-75
2022/03/15 09:36:33;;;;;;;32.77;16.50;;;4.10;99.90;;;;;;6236936;28;20481;-75
2022/03/15 09:39:39;;;;;;;29.17;15.77;;;4.10;99.90;;;;;;6236651;28;20299;-76
2022/03/15 09:42:45;;;;;;;31.03;15.77;;;4.10;99.90;;;;;;6236657;28;20294;-75
2022/03/15 09:45:53;;;;;;;30.00;16.87;;;4.30;99.90;;;;;;6237150;28;20450;-76
2022/03/15 09:49:20;;;;;;;27.50;15.20;;;4.30;99.90;;;;;;6236401;28;20307;-76
2022/03/15 09:52:26;;;;;;;31.80;16.07;;;4.50;99.90;;;;;;6236478;28;20300;-77
2022/03/15 09:55:32;;;;;;;31.67;16.23;;;4.50;99.90;;;;;;6237152;28;20291;-75
2022/03/15 09:58:37;;;;;;;29.20;15.07;;;4.70;99.90;;;;;;6236418;28;20312;-76
2022/03/15 10:01:44;;;;;;;30.30;15.20;;;5.00;99.90;;;;;;6236693;28;20279;-75
2022/03/15 10:04:50;;;;;;;32.53;15.17;;;5.40;99.90;;;;;;6236513;28;20292;-76
2022/03/15 10:07:57;;;;;;;32.03;16.10;;;5.10;99.90;;;;;;6235830;28;20479;-75
2022/03/15 10:11:03;;;;;;;34.03;16.63;;;5.00;99.90;;;;;;6236295;28;20283;-75
2022/03/15 10:14:12;;;;;;;24.37;14.47;;;4.90;99.90;;;;;;6236240;28;20303;-75
2022/03/15 10:17:17;;;;;;;29.20;15.43;;;5.20;99.90;;;;;;6236139;28;20572;-76
2022/03/15 10:20:28;;;;;;;29.50;14.60;;;5.30;99.90;;;;;;6236196;28;20445;-75
2022/03/15 10:23:38;;;;;;;30.03;15.20;;;5.20;99.90;;;;;;6238926;28;20302;-75
2022/03/15 10:26:45;;;;;;;31.13;14.77;;;5.20;99.90;;;;;;6240840;28;20443;-75
2022/03/15 10:29:51;;;;;;;27.97;14.77;;;5.20;99.90;;;;;;6240939;28;20308;-74
2022/03/15 10:32:57;;;;;;;25.03;14.40;;;5.20;99.90;;;;;;6241182;28;20320;-74
2022/03/15 10:36:02;;;;;;;29.70;14.07;;;5.30;99.90;;;;;;6240994;28;20293;-74
2022/03/15 10:39:13;;;;;;;23.57;14.47;;;5.30;99.90;;;;;;6240972;28;20483;-74
2022/03/15 10:42:24;;;;;;;22.03;14.17;;;5.40;99.90;;;;;;6240594;28;20297;-76
2022/03/15 10:45:30;;;;;;;28.67;13.80;;;5.50;99.90;;;;;;6241483;28;20275;-76
2022/03/15 10:48:36;;;;;;;27.27;14.20;;;5.90;99.90;;;;;;6241049;28;20297;-77
2022/03/15 10:51:48;;;;;;;31.97;13.47;;;6.10;99.80;;;;;;6241383;28;20273;-76
2022/03/15 10:54:54;;;;;;;25.27;13.43;;;6.00;99.90;;;;;;6240638;28;20300;-76
2022/03/15 10:58:04;;;;;;;33.10;14.50;;;6.00;99.90;;;;;;6240541;28;20504;-76
2022/03/15 11:01:10;;;;;;;25.73;13.37;;;6.30;98.70;;;;;;6241413;28;20270;-76
2022/03/15 11:04:17;;;;;;;24.50;12.20;;;6.40;97.50;;;;;;6240547;28;20301;-76
2022/03/15 11:07:22;;;;;;;27.10;13.00;;;6.50;96.20;;;;;;6240215;28;20297;-76
2022/03/15 11:10:33;;;;;;;23.37;12.30;;;6.60;96.10;;;;;;6239085;28;20275;-74
2022/03/15 11:13:39;;;;;;;23.20;11.77;;;6.70;95.50;;;;;;6239130;28;20299;-76
2022/03/15 11:16:46;;;;;;;21.87;12.30;;;6.60;96.00;;;;;;6240000;28;20301;-76
2022/03/15 11:19:57;;;;;;;25.40;12.63;;;6.50;96.20;;;;;;6240127;28;20303;-76
2022/03/15 11:23:05;;;;;;;21.47;12.87;;;6.50;96.70;;;;;;6240163;28;20299;-74
2022/03/15 11:26:17;;;;;;;22.30;12.13;;;6.60;96.00;;;;;;6240746;28;20282;-75
2022/03/15 11:29:23;;;;;;;21.97;12.57;;;6.70;95.90;;;;;;6239528;28;20602;-74
2022/03/15 11:32:31;;;;;;;23.80;12.50;;;6.70;95.60;;;;;;6239550;28;20294;-74
2022/03/15 11:35:40;;;;;;;25.60;12.37;;;6.90;93.60;;;;;;6239830;28;20454;-74
2022/03/15 11:38:46;;;;;;;21.47;11.80;;;6.90;93.90;;;;;;6239942;28;20312;-76
2022/03/15 11:41:56;;;;;;;25.07;11.73;;;7.10;91.50;;;;;;6240236;28;20271;-77
2022/03/15 11:45:10;;;;;;;23.10;11.53;;;7.20;91.20;;;;;;6239430;28;20271;-75
2022/03/15 11:48:46;;;;;;;20.33;12.03;;;7.20;90.30;;;;;;6239613;28;20302;-74
2022/03/15 11:51:57;;;;;;;22.00;11.73;;;7.30;90.20;;;;;;6240028;28;20295;-76
2022/03/15 11:55:11;;;;;;;21.60;11.70;;;7.20;90.90;;;;;;6238508;28;20279;-75
2022/03/15 11:58:27;;;;;;;21.50;11.07;;;7.30;87.40;;;;;;6238893;28;20486;-75
2022/03/15 12:01:33;;;;;;;23.87;11.37;;;7.30;86.00;;;;;;6239266;28;20271;-75
2022/03/15 12:04:44;;;;;;;26.53;11.60;;;7.30;88.20;;;;;;6237297;28;20296;-75
2022/03/15 12:08:13;;;;;;;17.87;10.57;;;7.20;88.70;;;;;;6238718;28;20300;-76
2022/03/15 12:11:32;;;;;;;23.03;12.10;;;7.30;82.50;;;;;;6239317;28;20273;-75
2022/03/15 12:14:44;;;;;;;22.23;11.80;;;7.40;85.30;;;;;;6238888;28;20297;-76
2022/03/15 12:17:49;;;;;;;21.70;12.10;;;7.30;88.60;;;;;;6238821;28;20299;-75
2022/03/15 12:21:02;;;;;;;16.90;10.63;;;7.40;85.80;;;;;;6237868;28;20275;-76
2022/03/15 12:24:13;;;;;;;18.73;11.00;;;7.50;79.10;;;;;;6238226;28;20304;-75
2022/03/15 12:27:22;;;;;;;16.77;10.80;;;7.50;81.20;;;;;;6238469;28;20466;-75
2022/03/15 12:30:30;;;;;;;20.57;11.33;;;7.40;82.20;;;;;;6237554;28;20275;-75
2022/03/15 12:33:36;;;;;;;19.17;11.27;;;7.40;83.00;;;;;;6238318;28;20296;-75
2022/03/15 12:36:53;;;;;;;20.43;11.20;;;7.40;85.20;;;;;;6238371;28;20273;-76
2022/03/15 12:40:03;;;;;;;17.20;11.37;;;7.40;85.10;;;;;;6238705;28;20285;-76
2022/03/15 12:43:22;;;;;;;15.80;11.17;;;7.40;86.00;;;;;;6238318;28;20450;-75
2022/03/15 12:46:30;;;;;;;19.97;11.33;;;7.50;83.00;;;;;;6238106;28;20272;-76
2022/03/15 12:49:36;;;;;;;25.27;11.30;;;7.50;83.90;;;;;;6238129;28;20304;-75
2022/03/15 12:52:46;;;;;;;21.47;11.57;;;7.50;83.90;;;;;;6238110;28;20296;-75
2022/03/15 12:55:51;;;;;;;20.23;11.30;;;7.50;86.10;;;;;;6238365;28;20268;-75
2022/03/15 12:58:57;;;;;;;21.13;10.73;;;7.40;87.50;;;;;;6237800;28;20301;-75
2022/03/15 13:02:05;;;;;;;19.40;11.27;;;7.50;86.50;;;;;;6237369;28;20280;-75
2022/03/15 13:05:21;;;;;;;17.80;11.53;;;7.40;85.60;;;;;;6238204;28;20273;-75
2022/03/15 13:08:26;;;;;;;19.40;11.53;;;7.50;85.40;;;;;;6237575;28;20511;-75
2022/03/15 13:11:33;;;;;;;18.37;11.23;;;7.50;84.00;;;;;;6238024;28;20264;-75
2022/03/15 13:14:38;;;;;;;22.53;11.47;;;7.50;84.20;;;;;;6237503;28;20587;-76
2022/03/15 13:17:50;;;;;;;18.33;10.93;;;7.50;85.70;;;;;;6237328;28;20312;-75
2022/03/15 13:21:00;;;;;;;21.27;11.20;;;7.40;86.90;;;;;;6237848;28;20271;-75
2022/03/15 13:24:11;;;;;;;24.20;12.53;;;7.50;86.40;;;;;;6237438;28;20295;-75
2022/03/15 13:27:16;;;;;;;18.27;11.87;;;7.50;86.50;;;;;;6236842;28;20277;-75
2022/03/15 13:30:26;;;;;;;24.90;11.70;;;7.50;86.30;;;;;;6237696;28;20273;-75
2022/03/15 13:33:38;;;;;;;21.70;11.30;;;7.40;85.90;;;;;;6236980;28;20299;-77
2022/03/15 13:36:45;;;;;;;18.87;11.73;;;7.50;85.70;;;;;;6235981;28;20283;-76
2022/03/15 13:39:51;;;;;;;21.70;10.87;;;7.50;84.40;;;;;;6237018;28;20303;-76
2022/03/15 13:43:00;;;;;;;21.63;11.10;;;7.60;79.10;;;;;;6236925;28;20453;-76
2022/03/15 13:46:06;;;;;;;19.73;11.10;;;7.70;79.00;;;;;;6236230;28;20284;-76
2022/03/15 13:49:20;;;;;;;19.97;10.73;;;7.70;76.40;;;;;;6236479;28;20303;-76
2022/03/15 13:52:26;;;;;;;19.50;11.10;;;7.70;73.10;;;;;;6236802;28;20295;-76
2022/03/15 13:55:32;;;;;;;16.57;10.70;;;7.60;74.60;;;;;;6237238;28;20273;-76
2022/03/15 13:58:38;;;;;;;18.70;10.20;;;7.60;74.70;;;;;;6236689;28;20583;-76
2022/03/15 14:01:46;;;;;;;17.43;10.50;;;7.60;74.60;;;;;;6237302;28;20273;-76
2022/03/15 14:05:02;;;;;;;19.33;10.47;;;7.50;73.90;;;;;;6236101;28;20315;-76
2022/03/15 14:08:12;;;;;;;18.97;11.47;;;7.70;74.60;;;;;;6237103;28;20292;-75
2022/03/15 14:11:19;;;;;;;22.67;10.57;;;8.70;66.30;;;;;;6237192;28;20264;-76
2022/03/15 14:14:24;;;;;;;19.57;11.07;;;8.20;64.50;;;;;;6236756;28;20296;-76
2022/03/15 14:17:48;;;;;;;23.13;11.37;;;7.90;67.90;;;;;;6236600;28;20297;-75
2022/03/15 14:20:56;;;;;;;18.47;10.83;;;8.00;67.90;;;;;;6235132;28;20273;-75
2022/03/15 14:24:01;;;;;;;18.50;11.00;;;8.00;66.60;;;;;;6236043;28;20300;-75
2022/03/15 14:27:07;;;;;;;17.40;10.88;;;8.80;63.40;;;;;;6236211;28;20276;-75
2022/03/15 14:30:13;;;;;;;19.20;11.23;;;9.10;57.20;;;;;;6236613;28;20272;-75
2022/03/15 14:33:20;;;;;;;17.07;10.97;;;8.60;59.40;;;;;;6235942;28;20479;-75
2022/03/15 14:36:32;;;;;;;21.20;11.60;;;8.20;63.90;;;;;;6236715;28;20272;-75
2022/03/15 14:39:40;;;;;;;24.63;11.77;;;7.90;65.40;;;;;;6235728;28;20296;-75
2022/03/15 14:42:45;;;;;;;18.70;11.40;;;7.70;67.30;;;;;;6235587;28;20312;-75
2022/03/15 14:45:52;;;;;;;17.03;11.03;;;7.60;70.40;;;;;;6236227;28;20272;-75
2022/03/15 14:48:58;;;;;;;19.97;10.90;;;7.40;73.60;;;;;;6235686;28;20324;-75
2022/03/15 14:52:05;;;;;;;19.67;11.50;;;7.30;77.50;;;;;;6235355;28;20269;-75
2022/03/15 14:55:13;;;;;;;24.90;12.00;;;7.40;74.10;;;;;;6235138;28;20272;-75
2022/03/15 14:58:18;;;;;;;21.53;11.90;;;7.40;75.40;;;;;;6235953;28;20383;-76
2022/03/15 15:01:24;;;;;;;20.87;11.67;;;7.40;74.70;;;;;;6236205;28;20575;-76
2022/03/15 15:04:32;;;;;;;19.73;11.27;;;7.30;77.80;;;;;;6235551;28;20292;-75
2022/03/15 15:07:39;;;;;;;19.87;10.80;;;7.20;78.30;;;;;;6235449;28;20474;-76
2022/03/15 15:10:46;;;;;;;18.57;11.30;;;7.20;79.60;;;;;;6240371;28;20356;-76
2022/03/15 15:13:52;;;;;;;24.20;13.00;;;7.10;84.20;;;;;;6240323;28;20352;-76
2022/03/15 15:16:57;;;;;;;24.33;13.97;;;7.00;92.40;;;;;;6240610;28;20272;-76
2022/03/15 15:20:04;;;;;;;18.93;12.73;;;6.90;94.70;;;;;;6240512;28;20329;-75
2022/03/15 15:23:13;;;;;;;21.77;13.40;;;6.80;95.80;;;;;;6239796;28;20296;-75
2022/03/15 15:26:18;;;;;;;21.97;13.87;;;6.70;96.60;;;;;;6240251;28;20272;-75
2022/03/15 15:29:26;;;;;;;23.40;14.93;;;6.60;97.20;;;;;;6239588;28;20296;-75
2022/03/15 15:32:31;;;;;;;23.50;14.97;;;6.50;97.90;;;;;;6239748;28;20297;-75
2022/03/15 15:35:39;;;;;;;24.00;15.57;;;6.40;98.40;;;;;;6240395;28;20278;-75
2022/03/15 15:38:47;;;;;;;25.20;14.60;;;6.40;98.80;;;;;;6239427;28;20466;-75
2022/03/15 15:41:52;;;;;;;24.33;15.27;;;6.30;99.10;;;;;;6239920;28;20293;-74
2022/03/15 15:44:58;;;;;;;25.20;14.93;;;6.30;99.40;;;;;;6238632;28;20304;-75
2022/03/15 15:48:08;;;;;;;27.27;15.73;;;6.20;99.60;;;;;;6239398;28;20300;-76
2022/03/15 15:51:15;;;;;;;31.37;15.73;;;6.10;99.90;;;;;;6239213;28;20279;-76
2022/03/15 15:54:23;;;;;;;25.57;15.03;;;5.90;99.90;;;;;;6239555;28;20602;-75
2022/03/15 15:57:29;;;;;;;24.67;13.97;;;6.00;99.40;;;;;;6239122;28;20452;-74